createdAt,value
2022-10-11T00:03:52.169Z,62.96
2022-10-11T00:14:19.843Z,63.41
2022-10-11T00:24:47.474Z,63.14
2022-10-11T00:35:15.093Z,62.99
2022-10-11T00:46:28.150Z,62.83
2022-10-11T00:57:01.620Z,62.20
2022-10-11T01:07:31.525Z,62.17
2022-10-11T01:18:05.432Z,61.92
2022-10-11T01:28:50.315Z,62.16
2022-10-11T01:39:27.098Z,62.04
2022-10-11T01:49:59.205Z,61.86
2022-10-11T02:00:30.453Z,61.54
2022-10-11T02:11:03.604Z,61.51
2022-10-11T02:21:34.669Z,61.61
2022-10-11T02:32:03.026Z,61.67
2022-10-11T02:42:37.845Z,61.90
2022-10-11T02:53:05.775Z,61.93
2022-10-11T03:03:33.317Z,62.16
2022-10-11T03:14:00.827Z,62.46
2022-10-11T03:24:28.405Z,62.93
2022-10-11T03:34:55.989Z,62.96
2022-10-11T03:45:23.682Z,62.70
2022-10-11T03:55:55.417Z,62.63
2022-10-11T04:06:22.994Z,62.05
2022-10-11T04:16:50.529Z,61.47
2022-10-11T04:27:18.141Z,60.99
2022-10-11T04:37:45.818Z,60.87
2022-10-11T04:48:14.134Z,61.49
2022-10-11T04:58:42.457Z,62.45
2022-10-11T05:09:10.106Z,63.20
2022-10-11T05:19:37.722Z,63.34
2022-10-11T05:30:06.217Z,63.78
2022-10-11T05:40:33.782Z,64.03
2022-10-11T05:51:06.039Z,64.23
2022-10-11T06:01:33.802Z,64.72
2022-10-11T06:12:01.709Z,64.75
2022-10-11T06:22:29.835Z,65.08
2022-10-11T06:33:00.037Z,65.27
2022-10-11T06:43:31.620Z,65.96
2022-10-11T06:54:02.076Z,66.19
2022-10-11T07:04:30.192Z,66.47
2022-10-11T07:14:56.226Z,66.60
2022-10-11T07:25:23.817Z,66.85
2022-10-11T07:35:52.058Z,67.20
2022-10-11T07:46:20.169Z,67.93
2022-10-11T07:56:47.896Z,69.01
2022-10-11T08:07:15.582Z,69.12
2022-10-11T08:17:43.439Z,68.85
2022-10-11T08:28:15.860Z,68.85
2022-10-11T08:38:44.002Z,68.57
2022-10-11T08:49:15.084Z,68.34
2022-10-11T08:59:49.755Z,68.55
2022-10-11T09:10:45.637Z,68.45
2022-10-11T09:21:22.240Z,68.59
2022-10-11T09:31:54.273Z,68.57
2022-10-11T09:42:21.914Z,68.52
2022-10-11T09:52:54.093Z,68.52
2022-10-11T10:03:31.930Z,68.74
2022-10-11T10:13:59.809Z,68.88
2022-10-11T10:24:39.433Z,68.75
2022-10-11T10:35:14.690Z,68.78
2022-10-11T10:45:58.519Z,68.67
2022-10-11T10:56:34.714Z,68.39
2022-10-11T11:07:14.521Z,68.38
2022-10-11T11:17:56.693Z,68.39
2022-10-11T11:28:42.565Z,68.01
2022-10-11T11:39:18.142Z,67.78
2022-10-11T11:49:48.997Z,67.30
2022-10-11T12:00:21.648Z,67.31
2022-10-11T12:11:01.600Z,66.73
2022-10-11T12:21:33.547Z,66.58
2022-10-11T12:32:50.361Z,65.99
2022-10-11T12:43:33.776Z,65.34
2022-10-11T12:54:27.528Z,64.93
2022-10-11T13:05:16.700Z,63.83
2022-10-11T13:15:45.777Z,63.39
2022-10-11T13:26:14.258Z,63.63
2022-10-11T13:36:42.421Z,62.82
2022-10-11T13:47:14.461Z,59.67
2022-10-11T13:57:46.007Z,58.37
2022-10-11T14:08:26.148Z,57.26
2022-10-11T14:19:03.417Z,56.35
2022-10-11T14:29:33.001Z,56.21
2022-10-11T14:40:01.120Z,56.51
2022-10-11T14:50:41.694Z,56.25
2022-10-11T15:01:11.457Z,56.04
2022-10-11T15:11:40.263Z,55.97
2022-10-11T15:22:07.797Z,56.22
2022-10-11T15:32:35.327Z,56.84
2022-10-11T15:43:03.609Z,57.28
2022-10-11T15:53:32.411Z,57.77
2022-10-11T16:04:00.000Z,57.92
2022-10-11T16:14:27.731Z,57.83
2022-10-11T16:24:55.781Z,57.93
2022-10-11T16:35:21.801Z,57.78
2022-10-11T16:45:49.462Z,57.76
2022-10-11T16:56:18.118Z,57.98
2022-10-11T17:06:45.989Z,58.08
2022-10-11T17:17:14.254Z,58.29
2022-10-11T17:27:41.845Z,58.59
2022-10-11T17:38:09.419Z,58.77
2022-10-11T17:48:36.902Z,58.91
2022-10-11T17:59:04.529Z,58.77
2022-10-11T18:09:32.660Z,58.98
2022-10-11T18:19:58.605Z,59.25
2022-10-11T18:30:26.362Z,59.42
2022-10-11T18:40:53.906Z,59.90
2022-10-11T18:51:23.616Z,59.88
2022-10-11T19:01:52.715Z,59.85
2022-10-11T19:12:20.858Z,59.69
2022-10-11T19:22:48.844Z,59.95
2022-10-11T19:33:16.459Z,60.42
2022-10-11T19:43:44.458Z,60.22
2022-10-11T19:54:14.879Z,60.16
2022-10-11T20:04:57.770Z,60.28
2022-10-11T20:15:25.342Z,60.29
2022-10-11T20:26:01.629Z,60.07
2022-10-11T20:36:30.612Z,59.49
2022-10-11T20:47:03.030Z,59.74
2022-10-11T20:57:32.982Z,59.84
2022-10-11T21:08:00.968Z,59.78
2022-10-11T21:18:28.590Z,59.70
2022-10-11T21:28:56.462Z,59.82
2022-10-11T21:39:24.345Z,60.05
2022-10-11T21:49:51.922Z,60.03
2022-10-11T22:00:19.432Z,59.83
2022-10-11T22:10:53.850Z,59.83
2022-10-11T22:21:23.319Z,59.87
2022-10-11T22:31:50.828Z,59.79
2022-10-11T22:42:18.398Z,59.71
2022-10-11T22:52:45.959Z,59.88
2022-10-11T23:03:17.568Z,59.43
2022-10-11T23:13:45.225Z,59.71
2022-10-11T23:24:12.986Z,59.29
2022-10-11T23:34:40.574Z,59.55
2022-10-11T23:45:09.776Z,59.30
2022-10-11T23:55:37.455Z,59.26
